Terminal Aerodrome Forecast
Issued by NWS Goodland, KS

Home | Current Version | Previous Version | Text Only | Print | Product List | Glossary On
Versions: 1 2 3 4 5 6 7 8 9 10 11 12 13 14 15 16 17 18
000
FTUS43 KGLD 172055 AAA
TAFGLD
TAF AMD
KGLD 172055Z 1721/1818 14008KT P6SM OVC020
     FM180400 21011KT P6SM VCTS SCT035CB BKN100
     FM180800 21008KT P6SM BKN030
     FM181100 22006KT P6SM FEW010 BKN070
     FM181400 27008KT P6SM FEW070=

USA.gov is the U.S. government's official web portal to all federal, state and local government web resources and services.